M/V Oriole — WDE6982 — position and weather

sailwx.info

Track history (hours):
 
Tides and Currents Weather Stations Pressure Air Temp Water Temp Dewpoint Dewpoint Depression Visibility Wind Speed Wind Dir Waves Ship Positions

M/V Oriole

Owner: NATIVE SON INC., ST. THOMAS, VI. More information available from US FCC via Universal Licensing System and Coast Guard Vessel Documentation Center.

Last reported at 2014-Dec-17 20:33 UTC. Time now 2014-Dec-22 05:39 UTC.
Position N 18°23' W 064°38'.

Length 25 m.

Type: Passenger vessel. MMSI: 366755670.

Date/timePositionNaut miles runAvg speedWind from/ knotsBaromVisibWave heightAir tempDewpointWater temp
2014-Dec-17 20:33N 18°23' W 064°38'10 9.4
2014-Dec-17 19:32N 18°21' W 064°48'2 1.1
2014-Dec-17 17:31N 18°20' W 064°50'8 8.4
2014-Dec-17 16:31N 18°23' W 064°42'6 2.0
2014-Dec-17 13:29N 18°20' W 064°48'4 4.1
2014-Dec-17 12:32N 18°23' W 064°45'4 3.9
2014-Dec-17 11:31N 18°20' W 064°48'6 6.4
2014-Dec-17 10:33N 18°23' W 064°42'3 0.3
2014-Dec-16 22:23N 18°23' W 064°39'9 4.8
2014-Dec-16 20:31N 18°20' W 064°48'2 2.4
2014-Dec-16 19:33N 18°22' W 064°47'4 1.7
2014-Dec-16 17:14N 18°20' W 064°50'810.8
2014-Dec-16 16:28N 18°23' W 064°42'6 2.1
2014-Dec-16 13:32N 18°20' W 064°48'2 1.9
2014-Dec-16 12:33N 18°22' W 064°47'2 1.8
2014-Dec-16 11:30N 18°20' W 064°48'8 7.7
2014-Dec-16 10:32N 18°23' W 064°40'2 0.2
2014-Dec-15 22:18N 18°23' W 064°38'1216.0
2014-Dec-15 21:33N 18°20' W 064°50'2 2.2
2014-Dec-15 20:33N 18°20' W 064°48'3 2.5
2014-Dec-15 19:31N 18°22' W 064°46'5 2.3
2014-Dec-15 17:28N 18°20' W 064°50'9 9.2
2014-Dec-15 16:33N 18°23' W 064°42'9 2.9
2014-Dec-15 13:32N 18°20' W 064°51'9 9.1
2014-Dec-15 12:33N 18°23' W 064°42'6 5.6
2014-Dec-15 11:28N 18°20' W 064°48'8 8.7
2014-Dec-15 10:33N 18°23' W 064°40'4 0.2
2014-Dec-14 19:32N 18°23' W 064°44'1 0.2
2014-Dec-14 14:33N 18°23' W 064°45'6 5.4
2014-Dec-14 13:26N 18°23' W 064°39'9 4.9
2014-Dec-14 11:33N 18°20' W 064°48'11 0.9
2014-Dec-13 23:17N 18°24' W 064°37'8 4.7
2014-Dec-13 21:33N 18°22' W 064°46'3 1.7
2014-Dec-13 19:33N 18°23' W 064°42'8 1.6
2014-Dec-13 14:26N 18°19' W 064°50'5 0.2
2014-Dec-12 19:33N 18°22' W 064°46'  
Track history (hours):
 
Tides and Currents Weather Stations Pressure Air Temp Water Temp Dewpoint Dewpoint Depression Visibility Wind Speed Wind Dir Waves Ship Positions

M/V Oriole

Owner: NATIVE SON INC., ST. THOMAS, VI. More information available from US FCC via Universal Licensing System and Coast Guard Vessel Documentation Center.

Last reported at 2014-Dec-17 20:33 UTC. Time now 2014-Dec-22 05:39 UTC.
Position N 18°23' W 064°38'.

Length 25 m.

Type: Passenger vessel. MMSI: 366755670.

Date/timePositionNaut miles runAvg speedWind from/ knotsBaromVisibWave heightAir tempDewpointWater temp
2014-Dec-17 20:33N 18°23' W 064°38'10 9.4
2014-Dec-17 19:32N 18°21' W 064°48'2 1.1
2014-Dec-17 17:31N 18°20' W 064°50'8 8.4
2014-Dec-17 16:31N 18°23' W 064°42'6 2.0
2014-Dec-17 13:29N 18°20' W 064°48'4 4.1
2014-Dec-17 12:32N 18°23' W 064°45'4 3.9
2014-Dec-17 11:31N 18°20' W 064°48'6 6.4
2014-Dec-17 10:33N 18°23' W 064°42'3 0.3
2014-Dec-16 22:23N 18°23' W 064°39'9 4.8
2014-Dec-16 20:31N 18°20' W 064°48'2 2.4
2014-Dec-16 19:33N 18°22' W 064°47'4 1.7
2014-Dec-16 17:14N 18°20' W 064°50'810.8
2014-Dec-16 16:28N 18°23' W 064°42'6 2.1
2014-Dec-16 13:32N 18°20' W 064°48'2 1.9
2014-Dec-16 12:33N 18°22' W 064°47'2 1.8
2014-Dec-16 11:30N 18°20' W 064°48'8 7.7
2014-Dec-16 10:32N 18°23' W 064°40'2 0.2
2014-Dec-15 22:18N 18°23' W 064°38'1216.0
2014-Dec-15 21:33N 18°20' W 064°50'2 2.2
2014-Dec-15 20:33N 18°20' W 064°48'3 2.5
2014-Dec-15 19:31N 18°22' W 064°46'5 2.3
2014-Dec-15 17:28N 18°20' W 064°50'9 9.2
2014-Dec-15 16:33N 18°23' W 064°42'9 2.9
2014-Dec-15 13:32N 18°20' W 064°51'9 9.1
2014-Dec-15 12:33N 18°23' W 064°42'6 5.6
2014-Dec-15 11:28N 18°20' W 064°48'8 8.7
2014-Dec-15 10:33N 18°23' W 064°40'4 0.2
2014-Dec-14 19:32N 18°23' W 064°44'1 0.2
2014-Dec-14 14:33N 18°23' W 064°45'6 5.4
2014-Dec-14 13:26N 18°23' W 064°39'9 4.9
2014-Dec-14 11:33N 18°20' W 064°48'11 0.9
2014-Dec-13 23:17N 18°24' W 064°37'8 4.7
2014-Dec-13 21:33N 18°22' W 064°46'3 1.7
2014-Dec-13 19:33N 18°23' W 064°42'8 1.6
2014-Dec-13 14:26N 18°19' W 064°50'5 0.2
2014-Dec-12 19:33N 18°22' W 064°46'  

Dump ship's entire track history